Time;durP1;ratioP1;P1;durP2;ratioP2;P2;SDS_P1;SDS_P2;PMS_P1;PMS_P2;Temp;Humidity;BMP_temperature;BMP_pressure;BME280_temperature;BME280_humidity;BME280_pressure;Samples;Min_cycle;Max_cycle;Signal;HPM_P1;HPM_P2
2022/12/26 00:00:37;;;;;;;26.45;12.45;;;7.10;82.90;;;;;;4137912;28;20040;-90
2022/12/26 00:02:57;;;;;;;26.33;12.10;;;7.00;82.80;;;;;;4149691;28;20042;-89
2022/12/26 00:05:18;;;;;;;23.95;11.68;;;7.10;82.90;;;;;;4142758;28;20029;-88
2022/12/26 00:07:39;;;;;;;19.40;10.77;;;7.20;83.00;;;;;;4135201;28;20098;-90
2022/12/26 00:09:59;;;;;;;19.48;10.68;;;7.10;83.00;;;;;;4141218;28;20038;-88
2022/12/26 00:12:20;;;;;;;19.42;10.40;;;7.10;83.00;;;;;;4130611;28;20056;-88
2022/12/26 00:14:40;;;;;;;19.48;11.63;;;7.00;82.90;;;;;;4149846;28;20026;-89
2022/12/26 00:17:01;;;;;;;25.42;11.27;;;7.00;82.90;;;;;;4133540;28;20118;-89
2022/12/26 00:19:22;;;;;;;19.23;10.70;;;7.10;82.90;;;;;;4145653;28;20300;-88
2022/12/26 00:21:42;;;;;;;18.65;10.30;;;7.10;82.90;;;;;;4145285;28;20058;-89
2022/12/26 00:24:03;;;;;;;16.83;10.30;;;7.00;82.90;;;;;;4136402;28;20058;-89
2022/12/26 00:26:27;;;;;;;32.40;11.95;;;7.00;82.90;;;;;;4135761;28;20027;-88
2022/12/26 00:28:47;;;;;;;74.47;12.67;;;7.00;82.90;;;;;;4144306;28;20044;-87
2022/12/26 00:31:18;;;;;;;64.72;12.20;;;7.10;82.90;;;;;;4136381;28;20638;-89
2022/12/26 00:33:39;;;;;;;66.57;11.73;;;7.20;82.80;;;;;;4155823;28;20033;-87
2022/12/26 00:36:04;;;;;;;22.65;10.10;;;7.10;82.70;;;;;;4149836;28;20136;-89
2022/12/26 00:38:25;;;;;;;44.85;11.90;;;7.10;82.60;;;;;;4141047;28;20080;-89
2022/12/26 00:40:44;;;;;;;24.80;9.13;;;7.00;82.60;;;;;;4135677;28;20085;-88
2022/12/26 00:43:03;;;;;;;18.35;9.57;;;7.00;82.60;;;;;;4149252;28;20060;-89
2022/12/26 00:45:22;;;;;;;26.63;9.40;;;7.00;82.80;;;;;;4136286;28;20073;-89
2022/12/26 00:47:41;;;;;;;18.45;8.98;;;7.00;82.80;;;;;;4131249;28;20077;-89
2022/12/26 00:50:01;;;;;;;79.57;11.60;;;7.10;82.80;;;;;;4162135;28;20036;-90
2022/12/26 00:52:20;;;;;;;30.65;9.90;;;7.00;82.80;;;;;;4145576;28;20075;-90
2022/12/26 00:54:39;;;;;;;23.27;10.00;;;7.00;82.80;;;;;;4148034;28;20115;-90
2022/12/26 00:56:58;;;;;;;22.58;9.75;;;7.00;82.70;;;;;;4132531;28;20567;-90
2022/12/26 00:59:17;;;;;;;26.65;9.75;;;7.10;82.80;;;;;;4126499;28;20177;-89
2022/12/26 01:01:36;;;;;;;25.08;9.25;;;6.90;82.70;;;;;;4142559;28;20049;-87
2022/12/26 01:03:56;;;;;;;21.02;9.15;;;7.10;82.90;;;;;;4135614;28;20041;-89
2022/12/26 01:06:16;;;;;;;27.65;9.10;;;7.00;82.80;;;;;;4147924;28;20079;-88
2022/12/26 01:08:35;;;;;;;14.07;8.32;;;7.00;82.80;;;;;;4128059;28;20105;-87
2022/12/26 01:10:54;;;;;;;13.80;8.05;;;7.10;82.80;;;;;;4142524;28;20049;-85
2022/12/26 01:13:14;;;;;;;23.48;9.65;;;7.00;82.80;;;;;;4139901;28;20064;-84
2022/12/26 01:15:34;;;;;;;25.60;10.75;;;7.00;82.80;;;;;;4139571;28;20513;-87
2022/12/26 01:17:53;;;;;;;31.17;9.73;;;7.00;82.70;;;;;;4162550;28;20037;-87
2022/12/26 01:20:12;;;;;;;37.85;9.55;;;6.90;82.60;;;;;;4154822;28;20098;-88
2022/12/26 01:22:31;;;;;;;26.10;9.45;;;7.00;82.60;;;;;;4150322;28;20048;-89
2022/12/26 01:24:57;;;;;;;19.55;9.02;;;6.90;82.50;;;;;;4150040;28;20889;-89
2022/12/26 01:27:17;;;;;;;18.45;8.63;;;6.90;82.50;;;;;;4152379;28;20131;-89
2022/12/26 01:29:35;;;;;;;20.75;9.38;;;6.90;82.60;;;;;;4142446;28;20125;-87
2022/12/26 01:31:55;;;;;;;22.75;9.20;;;6.90;82.60;;;;;;4137845;28;20568;-89
2022/12/26 01:34:14;;;;;;;17.90;8.70;;;7.00;82.80;;;;;;4149337;28;20091;-87
2022/12/26 01:36:33;;;;;;;31.42;9.75;;;6.90;82.80;;;;;;4150986;28;20099;-89
2022/12/26 01:38:52;;;;;;;20.83;8.05;;;7.00;82.80;;;;;;4151235;28;20036;-88
2022/12/26 01:41:18;;;;;;;20.98;9.10;;;6.90;82.80;;;;;;4147803;28;20492;-88
2022/12/26 01:44:00;;;;;;;25.95;9.70;;;6.90;82.90;;;;;;4137671;28;20102;-89
2022/12/26 01:46:31;;;;;;;22.73;9.75;;;6.90;82.80;;;;;;4153274;28;20240;-87
2022/12/26 01:48:51;;;;;;;21.77;9.50;;;6.90;82.80;;;;;;4153820;28;20040;-88
2022/12/26 01:51:12;;;;;;;18.33;10.48;;;6.90;82.80;;;;;;4148214;28;20149;-89
2022/12/26 01:53:38;;;;;;;24.92;9.80;;;7.00;82.90;;;;;;4121257;28;20119;-88
2022/12/26 01:56:03;;;;;;;24.50;9.40;;;6.90;82.90;;;;;;4150748;28;20103;-89
2022/12/26 01:58:30;;;;;;;36.45;10.05;;;6.90;82.90;;;;;;4149812;28;20088;-88
2022/12/26 02:00:50;;;;;;;31.63;9.68;;;6.90;83.00;;;;;;4134675;28;20037;-89
2022/12/26 02:05:49;;;;;;;36.20;9.70;;;6.90;83.00;;;;;;4149845;28;20051;-89
2022/12/26 02:08:19;;;;;;;36.92;9.80;;;7.00;83.20;;;;;;4133491;28;20045;-89
2022/12/26 02:10:50;;;;;;;23.65;10.40;;;6.90;83.20;;;;;;4133854;28;20046;-88
2022/12/26 02:13:10;;;;;;;32.70;9.23;;;6.90;83.20;;;;;;4150272;28;20095;-88
2022/12/26 02:15:30;;;;;;;27.77;9.65;;;6.90;83.20;;;;;;4151352;28;20082;-88
2022/12/26 02:17:49;;;;;;;20.23;8.85;;;6.90;83.20;;;;;;4138983;28;20045;-89
2022/12/26 02:20:28;;;;;;;18.20;9.68;;;6.90;83.20;;;;;;4134580;28;20037;-89
2022/12/26 02:23:21;;;;;;;21.08;8.77;;;6.90;83.30;;;;;;4135769;28;20081;-88
2022/12/26 02:26:01;;;;;;;25.73;10.32;;;7.00;83.30;;;;;;4151010;28;20549;-88
2022/12/26 02:28:39;;;;;;;16.45;9.18;;;7.00;83.30;;;;;;4150112;28;20114;-88
2022/12/26 02:31:10;;;;;;;24.60;10.27;;;7.00;83.30;;;;;;4149296;28;20120;-87
2022/12/26 02:33:53;;;;;;;28.60;10.23;;;7.00;84.00;;;;;;4133128;28;20572;-87
2022/12/26 02:36:34;;;;;;;15.88;9.63;;;7.00;83.30;;;;;;4147263;28;20045;-89
2022/12/26 02:39:07;;;;;;;27.88;10.63;;;7.00;83.30;;;;;;4156861;28;20524;-87
2022/12/26 02:42:03;;;;;;;50.88;12.02;;;7.00;83.30;;;;;;4151005;28;20082;-89
2022/12/26 02:48:04;;;;;;;37.10;12.27;;;7.10;83.30;;;;;;4102086;28;20121;-89
2022/12/26 03:15:23;;;;;;;18.88;9.50;;;7.00;83.20;;;;;;4102079;28;20040;-89
2022/12/26 03:17:48;;;;;;;23.67;9.68;;;7.00;83.30;;;;;;4114262;28;20103;-88
2022/12/26 03:20:11;;;;;;;25.70;9.55;;;7.00;83.30;;;;;;4136193;28;20434;-87
2022/12/26 03:22:46;;;;;;;24.98;10.60;;;7.00;83.40;;;;;;4139230;28;20045;-89
2022/12/26 03:28:02;;;;;;;22.15;9.10;;;7.00;83.40;;;;;;4149301;28;20124;-87
2022/12/26 03:33:00;;;;;;;27.10;9.32;;;7.00;83.40;;;;;;4146726;28;20111;-88
2022/12/26 03:35:19;;;;;;;19.15;9.35;;;7.00;83.40;;;;;;4147294;28;20095;-87
2022/12/26 03:38:03;;;;;;;20.40;10.10;;;7.00;83.40;;;;;;4159861;28;20126;-87
2022/12/26 04:20:17;;;;;;;28.58;8.05;;;7.00;83.70;;;;;;4154038;28;20048;-89
2022/12/26 04:44:33;;;;;;;12.63;6.90;;;7.00;83.70;;;;;;4160958;28;20032;-89
2022/12/26 04:46:54;;;;;;;13.90;7.15;;;7.00;83.80;;;;;;4156692;28;20686;-90
2022/12/26 04:51:56;;;;;;;16.33;7.43;;;7.20;84.00;;;;;;4166801;28;20039;-90
2022/12/26 04:54:15;;;;;;;11.52;6.55;;;7.10;83.90;;;;;;4137805;28;20049;-89
2022/12/26 04:56:35;;;;;;;15.57;7.88;;;7.10;83.90;;;;;;4149654;28;20045;-89
2022/12/26 04:58:36;;;;;;;14.75;7.55;;;7.00;83.90;;;;;;4159686;28;20524;-88
2022/12/26 05:00:36;;;;;;;13.20;6.93;;;7.20;84.00;;;;;;4141613;28;20034;-89
2022/12/26 05:09:41;;;;;;;12.10;6.72;;;7.20;84.00;;;;;;4167309;28;20041;-88
2022/12/26 05:11:46;;;;;;;13.05;6.80;;;7.20;84.00;;;;;;4120937;28;20034;-90
2022/12/26 05:13:46;;;;;;;18.35;7.72;;;7.10;84.00;;;;;;4127073;28;20025;-90
2022/12/26 05:30:01;;;;;;;13.32;6.97;;;7.20;83.90;;;;;;4142823;28;20517;-89
2022/12/26 05:32:02;;;;;;;13.40;7.05;;;7.10;83.90;;;;;;4146869;28;20025;-88
2022/12/26 05:34:07;;;;;;;22.95;7.20;;;7.10;83.90;;;;;;4124465;28;20038;-89
2022/12/26 05:36:09;;;;;;;11.88;6.22;;;7.10;84.00;;;;;;4139481;28;20025;-87
2022/12/26 05:38:10;;;;;;;14.57;6.88;;;7.10;84.00;;;;;;4133059;28;20026;-84
2022/12/26 05:40:11;;;;;;;15.10;6.95;;;7.20;84.10;;;;;;4154101;28;20501;-87
2022/12/26 05:42:31;;;;;;;18.23;6.88;;;7.10;84.20;;;;;;4147517;28;20180;-87
2022/12/26 05:44:52;;;;;;;20.38;7.35;;;7.10;84.10;;;;;;4138342;28;20029;-89
2022/12/26 05:47:13;;;;;;;20.52;7.07;;;7.10;84.10;;;;;;4136957;28;20137;-89
2022/12/26 05:49:33;;;;;;;22.95;6.57;;;7.20;84.20;;;;;;4141591;28;20037;-89
2022/12/26 05:51:54;;;;;;;15.93;6.93;;;7.30;84.30;;;;;;4149414;28;20033;-88
2022/12/26 05:54:14;;;;;;;36.58;7.43;;;7.20;84.30;;;;;;4152483;28;21041;-89
2022/12/26 05:56:35;;;;;;;41.05;7.25;;;7.20;84.40;;;;;;4152519;28;20033;-89
2022/12/26 05:58:58;;;;;;;48.22;7.80;;;7.20;84.40;;;;;;4133884;28;20038;-90
2022/12/26 06:01:19;;;;;;;27.02;7.13;;;7.20;84.30;;;;;;4138117;28;20037;-89
2022/12/26 06:03:42;;;;;;;32.92;8.23;;;7.20;84.40;;;;;;4149982;28;20026;-88
2022/12/26 06:06:04;;;;;;;35.90;7.72;;;7.20;84.50;;;;;;4140476;28;20041;-89
2022/12/26 06:08:24;;;;;;;49.53;7.65;;;7.20;84.50;;;;;;4142111;28;20022;-89
2022/12/26 06:10:45;;;;;;;35.22;8.18;;;7.20;84.50;;;;;;4156931;28;20033;-88
2022/12/26 06:13:05;;;;;;;30.48;7.90;;;7.20;84.50;;;;;;4147273;28;20033;-88
2022/12/26 06:15:26;;;;;;;53.75;8.05;;;7.30;84.60;;;;;;4154157;28;20432;-88
2022/12/26 06:17:47;;;;;;;39.33;7.80;;;7.20;84.60;;;;;;4142484;28;20045;-89
2022/12/26 06:20:08;;;;;;;32.50;7.60;;;7.30;84.60;;;;;;4148706;28;20030;-88
2022/12/26 06:22:28;;;;;;;29.77;7.72;;;7.30;84.50;;;;;;4140291;28;20030;-89
2022/12/26 06:24:49;;;;;;;29.58;7.78;;;7.30;84.60;;;;;;4138982;28;20030;-89
2022/12/26 06:27:10;;;;;;;26.13;8.00;;;7.30;84.60;;;;;;4128339;28;20118;-88
2022/12/26 06:29:31;;;;;;;28.42;7.38;;;7.30;84.60;;;;;;4145189;28;20033;-90
2022/12/26 06:31:52;;;;;;;22.17;7.65;;;7.30;84.70;;;;;;4149078;28;20044;-90
2022/12/26 06:34:12;;;;;;;26.63;7.95;;;7.30;84.60;;;;;;4140879;28;20032;-88
2022/12/26 06:36:33;;;;;;;21.25;7.53;;;7.30;84.60;;;;;;4134845;28;20034;-89
2022/12/26 06:38:54;;;;;;;19.10;7.35;;;7.30;84.60;;;;;;4138302;28;20026;-90
2022/12/26 06:41:17;;;;;;;21.17;7.97;;;7.30;84.70;;;;;;4134772;28;20312;-89
2022/12/26 06:43:38;;;;;;;20.75;7.45;;;7.40;84.70;;;;;;4133980;28;20045;-91
2022/12/26 06:46:00;;;;;;;22.23;8.68;;;7.40;84.70;;;;;;4136304;28;20034;-91
2022/12/26 06:48:20;;;;;;;19.83;7.82;;;7.40;84.80;;;;;;4143891;28;20067;-91
2022/12/26 06:50:41;;;;;;;25.23;8.40;;;7.40;84.70;;;;;;4161456;28;20036;-90
2022/12/26 06:53:02;;;;;;;21.63;8.15;;;7.50;84.80;;;;;;4135424;28;20040;-91
2022/12/26 06:55:22;;;;;;;21.08;8.10;;;7.40;84.70;;;;;;4149793;28;20048;-90
2022/12/26 06:57:43;;;;;;;19.55;8.15;;;7.40;84.80;;;;;;4147899;28;20447;-90
2022/12/26 07:00:04;;;;;;;19.75;7.97;;;7.30;84.70;;;;;;4138737;28;20026;-88
2022/12/26 07:02:25;;;;;;;19.45;8.50;;;7.40;84.80;;;;;;4131671;28;21339;-90
2022/12/26 07:04:44;;;;;;;15.95;6.63;;;7.40;84.80;;;;;;4130710;28;20085;-90
2022/12/26 07:07:03;;;;;;;16.33;7.00;;;7.50;84.80;;;;;;4135357;28;21536;-90
2022/12/26 07:09:22;;;;;;;17.70;6.88;;;7.50;84.90;;;;;;4126282;28;21036;-90
2022/12/26 07:11:45;;;;;;;15.55;6.43;;;7.40;84.80;;;;;;4133394;28;20999;-91
2022/12/26 07:14:05;;;;;;;17.27;6.45;;;7.40;84.80;;;;;;4151346;28;20040;-89
2022/12/26 07:16:25;;;;;;;15.85;6.28;;;7.40;84.90;;;;;;4140009;28;20920;-89
2022/12/26 07:18:45;;;;;;;15.48;5.45;;;7.40;84.80;;;;;;4134715;28;20764;-90
2022/12/26 07:21:05;;;;;;;11.98;4.97;;;7.40;84.90;;;;;;4138886;28;20114;-90
2022/12/26 07:23:25;;;;;;;13.90;5.30;;;7.40;84.80;;;;;;4146562;28;20053;-88
2022/12/26 07:25:47;;;;;;;10.90;4.53;;;7.40;84.90;;;;;;4137671;28;20045;-89
2022/12/26 07:28:06;;;;;;;9.43;4.63;;;7.50;84.90;;;;;;4133486;28;20052;-90
2022/12/26 07:30:25;;;;;;;10.98;4.38;;;7.50;84.90;;;;;;4133310;28;20763;-90
2022/12/26 07:32:44;;;;;;;11.32;4.88;;;7.50;84.90;;;;;;4144805;28;20125;-91
2022/12/26 07:35:04;;;;;;;10.93;4.82;;;7.40;84.90;;;;;;4141369;28;20056;-91
2022/12/26 07:37:23;;;;;;;12.18;5.30;;;7.40;84.80;;;;;;4133666;28;20887;-91
2022/12/26 07:39:42;;;;;;;14.38;6.05;;;7.50;84.90;;;;;;4158035;28;20040;-89
2022/12/26 07:42:02;;;;;;;12.18;5.95;;;7.50;85.00;;;;;;4137264;28;20109;-91
2022/12/26 07:44:22;;;;;;;14.75;6.60;;;7.50;85.00;;;;;;4134870;28;20040;-91
2022/12/26 07:46:41;;;;;;;20.15;7.72;;;7.50;84.90;;;;;;4136982;28;20552;-90
2022/12/26 07:49:01;;;;;;;17.23;7.65;;;7.50;85.70;;;;;;4147511;28;20056;-91
2022/12/26 07:51:20;;;;;;;18.65;8.38;;;7.50;85.00;;;;;;4133572;28;20505;-88
2022/12/26 07:53:40;;;;;;;20.13;8.57;;;7.50;84.90;;;;;;4146420;28;20040;-90
2022/12/26 07:55:59;;;;;;;18.92;8.77;;;7.50;84.90;;;;;;4140909;28;20150;-89
2022/12/26 07:58:18;;;;;;;19.98;8.88;;;7.50;85.00;;;;;;4151923;28;20290;-91
2022/12/26 08:00:38;;;;;;;17.52;8.15;;;7.50;85.80;;;;;;4141556;28;20137;-87
2022/12/26 08:02:57;;;;;;;17.90;7.97;;;7.50;85.00;;;;;;4133743;28;20125;-90
2022/12/26 08:05:17;;;;;;;18.80;7.57;;;7.60;85.10;;;;;;4166365;28;20094;-90
2022/12/26 08:07:36;;;;;;;16.83;7.30;;;7.50;85.10;;;;;;4141987;28;20048;-89
2022/12/26 08:09:55;;;;;;;13.07;6.88;;;7.50;85.10;;;;;;4152048;28;20086;-91
2022/12/26 08:12:16;;;;;;;12.93;6.63;;;7.50;85.10;;;;;;4132985;28;20093;-91
2022/12/26 08:14:39;;;;;;;16.63;7.07;;;7.50;85.10;;;;;;4151854;28;20057;-91
2022/12/26 08:16:59;;;;;;;11.13;5.70;;;7.60;85.30;;;;;;4136805;28;20040;-90
2022/12/26 08:19:18;;;;;;;11.85;6.38;;;7.50;85.30;;;;;;4155245;28;20037;-88
2022/12/26 08:21:38;;;;;;;10.38;5.85;;;7.60;85.40;;;;;;4143456;28;20154;-89
2022/12/26 08:23:57;;;;;;;13.43;6.75;;;7.50;85.30;;;;;;4156019;28;20048;-91
2022/12/26 08:26:21;;;;;;;11.35;5.97;;;7.60;85.40;;;;;;4159390;28;20056;-90
2022/12/26 08:28:40;;;;;;;16.70;6.72;;;7.60;85.40;;;;;;4157918;28;20037;-89
2022/12/26 08:31:05;;;;;;;17.30;6.75;;;7.70;85.50;;;;;;4160045;28;20036;-91
2022/12/26 08:33:25;;;;;;;15.30;6.90;;;7.60;85.40;;;;;;4161036;28;20045;-91
2022/12/26 08:35:45;;;;;;;13.82;6.70;;;7.60;85.40;;;;;;4162826;28;20072;-88
2022/12/26 08:38:05;;;;;;;18.08;7.65;;;7.60;85.40;;;;;;4156825;28;20642;-90
2022/12/26 08:40:24;;;;;;;13.02;6.75;;;7.70;85.50;;;;;;4145265;28;20065;-88
2022/12/26 08:42:44;;;;;;;16.40;7.68;;;7.60;85.40;;;;;;4162181;28;20685;-90
2022/12/26 08:44:44;;;;;;;13.90;7.28;;;7.70;85.60;;;;;;4155515;28;20026;-91
2022/12/26 08:46:45;;;;;;;16.98;7.90;;;7.60;85.50;;;;;;4155301;28;20041;-91
2022/12/26 08:48:46;;;;;;;17.90;8.35;;;7.80;85.70;;;;;;4138624;28;20042;-88
2022/12/26 08:50:50;;;;;;;16.50;8.13;;;7.70;85.50;;;;;;4144081;28;20125;-90
2022/12/26 08:52:56;;;;;;;15.27;7.60;;;7.70;85.60;;;;;;4138010;28;20034;-91
2022/12/26 08:54:57;;;;;;;20.30;9.07;;;7.70;85.60;;;;;;4122944;28;20065;-89
2022/12/26 08:56:57;;;;;;;15.68;8.43;;;7.80;85.60;;;;;;4138023;28;20029;-88
2022/12/26 08:59:04;;;;;;;17.92;8.63;;;7.70;85.70;;;;;;4123283;28;20045;-89
2022/12/26 09:01:14;;;;;;;19.10;9.40;;;7.70;85.60;;;;;;4142717;28;20461;-91
2022/12/26 09:03:17;;;;;;;22.10;9.65;;;7.80;85.60;;;;;;4122308;28;20027;-89
2022/12/26 09:05:25;;;;;;;22.67;10.52;;;7.90;85.70;;;;;;4145606;28;20057;-90
2022/12/26 09:07:27;;;;;;;21.83;11.45;;;7.80;85.70;;;;;;4139462;28;20283;-90
2022/12/26 09:09:30;;;;;;;25.92;11.38;;;7.80;85.70;;;;;;4156171;28;20033;-89
2022/12/26 09:11:34;;;;;;;27.00;12.07;;;7.90;85.80;;;;;;4171260;28;20089;-88
2022/12/26 09:13:38;;;;;;;21.35;11.27;;;7.90;85.70;;;;;;4179295;28;20064;-92
2022/12/26 09:15:41;;;;;;;21.88;11.43;;;7.90;85.80;;;;;;4145673;28;20018;-89
2022/12/26 09:17:42;;;;;;;22.70;11.40;;;7.90;85.80;;;;;;4152090;28;20026;-90
2022/12/26 09:19:43;;;;;;;20.95;11.82;;;8.00;86.60;;;;;;4149519;28;20093;-91
2022/12/26 09:21:44;;;;;;;22.80;12.45;;;7.90;85.80;;;;;;4142389;28;20037;-89
2022/12/26 09:23:46;;;;;;;25.90;12.43;;;7.90;85.80;;;;;;4153035;28;20036;-89
2022/12/26 09:25:47;;;;;;;25.92;12.07;;;7.90;85.80;;;;;;4164996;28;20026;-91
2022/12/26 09:27:48;;;;;;;19.42;11.63;;;8.10;86.00;;;;;;4153300;28;20030;-91
2022/12/26 09:29:49;;;;;;;23.48;11.52;;;8.10;86.00;;;;;;4138541;28;20126;-90
2022/12/26 09:31:52;;;;;;;21.35;10.98;;;8.10;86.10;;;;;;4134128;28;20495;-89
2022/12/26 09:33:53;;;;;;;22.63;11.85;;;8.00;86.00;;;;;;4161185;28;20516;-89
2022/12/26 09:35:54;;;;;;;19.30;10.57;;;8.10;86.00;;;;;;4127003;28;20039;-89
2022/12/26 09:37:54;;;;;;;19.58;10.70;;;8.10;86.00;;;;;;4157454;28;20457;-88
2022/12/26 09:39:55;;;;;;;18.63;10.02;;;8.00;85.90;;;;;;4135183;28;20133;-89
2022/12/26 09:42:07;;;;;;;19.02;9.98;;;8.20;86.00;;;;;;4132373;28;20030;-88
2022/12/26 09:44:33;;;;;;;22.35;10.73;;;8.10;85.90;;;;;;4119804;28;20108;-88
2022/12/26 09:46:47;;;;;;;26.05;11.20;;;8.10;85.90;;;;;;4157112;28;20029;-89
2022/12/26 09:49:07;;;;;;;25.30;11.18;;;8.10;85.90;;;;;;4147710;28;20551;-88
2022/12/26 09:51:09;;;;;;;23.42;10.77;;;8.10;86.70;;;;;;4147846;28;20104;-89
2022/12/26 09:53:18;;;;;;;20.58;10.50;;;8.10;85.90;;;;;;4152205;28;20025;-89
2022/12/26 09:55:41;;;;;;;18.85;10.70;;;8.20;85.90;;;;;;4151086;28;20049;-89
2022/12/26 09:57:46;;;;;;;24.35;10.88;;;8.20;85.90;;;;;;4149105;28;20060;-88
2022/12/26 09:59:53;;;;;;;27.67;10.82;;;8.20;85.90;;;;;;4134722;28;20450;-88
2022/12/26 10:01:54;;;;;;;17.95;9.80;;;8.20;85.80;;;;;;4144818;28;20031;-89
2022/12/26 10:03:57;;;;;;;26.02;10.75;;;8.20;85.80;;;;;;4144238;28;20057;-87
2022/12/26 10:06:17;;;;;;;21.92;10.07;;;8.20;85.70;;;;;;4130384;28;20475;-88
2022/12/26 10:08:31;;;;;;;18.63;9.05;;;8.30;85.80;;;;;;4136803;28;20032;-87
2022/12/26 10:11:01;;;;;;;17.80;8.98;;;8.40;85.80;;;;;;4146105;28;20461;-89
2022/12/26 10:13:10;;;;;;;19.35;9.48;;;8.30;85.70;;;;;;4174423;28;20056;-89
2022/12/26 10:15:28;;;;;;;21.85;9.52;;;8.30;85.60;;;;;;4157855;28;20021;-89
2022/12/26 10:17:43;;;;;;;22.08;9.57;;;8.30;85.60;;;;;;4133873;28;20505;-89
2022/12/26 10:19:48;;;;;;;19.65;10.13;;;8.30;85.60;;;;;;4150374;28;20029;-89
2022/12/26 10:22:01;;;;;;;19.50;9.90;;;8.30;85.60;;;;;;4149934;28;20018;-88
2022/12/26 10:24:17;;;;;;;19.05;9.60;;;8.30;85.50;;;;;;4144664;28;20355;-89
2022/12/26 10:26:20;;;;;;;21.85;10.05;;;8.40;85.50;;;;;;4134929;28;20081;-89
2022/12/26 10:28:39;;;;;;;20.38;9.85;;;8.40;85.50;;;;;;4161156;28;20624;-88
2022/12/26 10:30:41;;;;;;;16.35;9.73;;;8.40;85.50;;;;;;4145752;28;20033;-89
2022/12/26 10:32:55;;;;;;;21.50;9.75;;;8.40;85.50;;;;;;4133536;28;20095;-89
2022/12/26 10:34:58;;;;;;;22.73;10.07;;;8.40;85.40;;;;;;4122467;28;20042;-87
2022/12/26 10:37:27;;;;;;;20.58;10.05;;;8.40;85.40;;;;;;4147141;28;20025;-90
2022/12/26 10:39:47;;;;;;;22.23;10.38;;;8.40;85.40;;;;;;4134101;28;20038;-90
2022/12/26 10:41:53;;;;;;;20.88;10.48;;;8.40;85.30;;;;;;4147651;28;21126;-91
2022/12/26 10:43:54;;;;;;;23.17;11.35;;;8.50;85.30;;;;;;4123530;28;20038;-87
2022/12/26 10:46:23;;;;;;;17.20;9.93;;;8.50;85.30;;;;;;4150410;28;20156;-92
2022/12/26 10:48:27;;;;;;;23.33;11.30;;;8.50;85.30;;;;;;4161982;28;20116;-89
2022/12/26 10:50:33;;;;;;;20.73;10.45;;;8.50;85.30;;;;;;4152457;28;20034;-88
2022/12/26 10:52:39;;;;;;;21.08;11.95;;;8.50;85.20;;;;;;4136632;28;20084;-88
2022/12/26 10:54:40;;;;;;;22.50;12.38;;;8.50;85.30;;;;;;4165399;28;20033;-89
2022/12/26 10:56:44;;;;;;;21.63;12.05;;;8.50;85.20;;;;;;4140024;28;20101;-89
2022/12/26 10:58:45;;;;;;;18.70;10.77;;;8.60;85.30;;;;;;4151978;28;20698;-89
2022/12/26 11:00:46;;;;;;;24.08;11.77;;;8.60;85.20;;;;;;4152740;28;20028;-90
2022/12/26 11:03:07;;;;;;;24.70;11.25;;;8.60;85.20;;;;;;4147060;28;20307;-87
2022/12/26 11:05:13;;;;;;;19.48;10.77;;;8.60;85.10;;;;;;4151783;28;20075;-88
2022/12/26 11:07:17;;;;;;;19.67;10.52;;;8.60;85.10;;;;;;4121700;28;20030;-89
2022/12/26 11:09:41;;;;;;;24.05;10.05;;;8.50;84.90;;;;;;4135581;28;20157;-88
2022/12/26 11:11:50;;;;;;;19.65;9.77;;;8.60;84.80;;;;;;4137401;28;20033;-87
2022/12/26 11:14:02;;;;;;;22.80;10.80;;;8.60;84.80;;;;;;4122597;28;20026;-87
2022/12/26 11:16:06;;;;;;;19.50;9.98;;;8.60;84.80;;;;;;4141026;28;20103;-88
2022/12/26 11:18:21;;;;;;;21.15;9.45;;;8.60;84.80;;;;;;4157401;28;20030;-88
2022/12/26 11:20:27;;;;;;;24.17;9.07;;;8.60;84.80;;;;;;4141360;28;20029;-90
2022/12/26 11:22:29;;;;;;;15.88;8.85;;;8.60;84.80;;;;;;4135581;28;20081;-89
2022/12/26 11:24:29;;;;;;;17.27;8.32;;;8.70;84.90;;;;;;4132160;28;20101;-89
2022/12/26 11:26:30;;;;;;;18.35;8.20;;;8.80;84.80;;;;;;4150001;28;20080;-89
2022/12/26 11:28:36;;;;;;;16.77;7.40;;;8.70;84.80;;;;;;4129775;28;20040;-90
2022/12/26 11:30:39;;;;;;;16.40;7.28;;;8.60;84.70;;;;;;4157221;28;20075;-88
2022/12/26 11:32:49;;;;;;;15.95;8.30;;;8.80;84.70;;;;;;4151878;28;20022;-89
2022/12/26 11:34:50;;;;;;;15.05;7.43;;;8.80;84.60;;;;;;4139793;28;20041;-89
2022/12/26 11:36:51;;;;;;;16.58;7.40;;;8.80;84.60;;;;;;4135302;28;20023;-88
2022/12/26 11:38:56;;;;;;;20.30;7.78;;;8.90;84.50;;;;;;4133503;28;20109;-90
2022/12/26 11:41:45;;;;;;;13.77;7.45;;;8.80;84.40;;;;;;4136801;28;20097;-88
2022/12/26 11:43:21;;;;;;;14.60;6.82;;;8.90;84.30;;;;;;4143013;28;20038;-90
2022/12/26 11:45:27;;;;;;;16.17;7.35;;;8.90;84.20;;;;;;4160131;28;20080;-90
2022/12/26 11:47:32;;;;;;;13.65;7.45;;;8.80;84.00;;;;;;4128517;28;20097;-89
2022/12/26 11:49:46;;;;;;;14.85;6.97;;;8.90;84.00;;;;;;4127000;28;20048;-89
2022/12/26 11:51:49;;;;;;;13.20;6.70;;;8.80;83.90;;;;;;4152807;28;20093;-89
2022/12/26 11:54:26;;;;;;;16.40;6.93;;;8.90;83.90;;;;;;4138801;28;20108;-89
2022/12/26 11:56:27;;;;;;;12.80;6.05;;;8.80;83.70;;;;;;4145297;28;20037;-88
2022/12/26 11:58:29;;;;;;;12.18;5.22;;;8.80;83.50;;;;;;4159373;28;20037;-88
2022/12/26 12:00:34;;;;;;;11.48;5.28;;;8.80;83.60;;;;;;4126293;28;20018;-88
2022/12/26 12:02:37;;;;;;;15.43;5.85;;;8.80;83.50;;;;;;4160424;28;20037;-90
2022/12/26 12:04:37;;;;;;;15.68;5.70;;;8.80;83.50;;;;;;4115248;28;20062;-87
2022/12/26 12:06:42;;;;;;;11.65;5.80;;;8.90;83.50;;;;;;4152348;28;20029;-90
2022/12/26 12:09:06;;;;;;;12.52;5.32;;;8.70;83.30;;;;;;4161349;28;20057;-89
2022/12/26 12:11:15;;;;;;;10.80;5.05;;;8.80;83.20;;;;;;4136642;28;20022;-88
2022/12/26 12:13:23;;;;;;;11.45;5.05;;;8.80;83.10;;;;;;4129164;28;20052;-88
2022/12/26 12:15:30;;;;;;;16.52;4.65;;;8.90;83.20;;;;;;4131197;28;20030;-89
2022/12/26 12:17:58;;;;;;;12.48;4.90;;;8.80;83.00;;;;;;4163710;28;20017;-89
2022/12/26 12:20:40;;;;;;;9.68;5.00;;;8.70;82.80;;;;;;4141324;28;20102;-87
2022/12/26 12:23:06;;;;;;;13.05;4.47;;;8.70;82.80;;;;;;4064248;29;20464;-90
2022/12/26 12:25:33;;;;;;;7.82;3.67;;;8.70;82.60;;;;;;4121046;28;20041;-90
2022/12/26 12:27:34;;;;;;;10.70;4.05;;;8.70;82.50;;;;;;4145745;28;20142;-89
2022/12/26 12:29:50;;;;;;;13.50;4.70;;;8.70;82.30;;;;;;4122560;28;20510;-89
2022/12/26 12:32:08;;;;;;;10.80;3.88;;;8.70;82.30;;;;;;4147398;28;20029;-91
2022/12/26 12:34:46;;;;;;;14.77;4.45;;;8.60;82.10;;;;;;4130809;28;20061;-89
2022/12/26 12:36:59;;;;;;;12.50;3.85;;;8.60;82.30;;;;;;4166393;28;20041;-89
2022/12/26 12:39:11;;;;;;;7.95;3.38;;;8.60;82.20;;;;;;4133834;28;20026;-90
2022/12/26 12:41:30;;;;;;;9.07;3.50;;;8.60;82.20;;;;;;4149174;28;20578;-88
2022/12/26 12:44:02;;;;;;;14.48;3.80;;;8.60;81.80;;;;;;4145222;28;21762;-91
2022/12/26 12:46:24;;;;;;;19.90;3.63;;;8.60;81.60;;;;;;4099111;28;20035;-89
2022/12/26 12:48:40;;;;;;;15.18;3.67;;;8.50;81.00;;;;;;4076760;28;20059;-89
2022/12/26 12:51:05;;;;;;;12.48;3.13;;;8.50;80.60;;;;;;4069127;29;20142;-88
2022/12/26 12:53:14;;;;;;;16.42;3.10;;;8.50;80.50;;;;;;4094502;28;20529;-89
2022/12/26 12:55:25;;;;;;;21.48;3.50;;;8.50;80.40;;;;;;4080058;28;20024;-89
2022/12/26 12:57:42;;;;;;;16.10;2.60;;;8.40;80.10;;;;;;4083554;28;20163;-89
2022/12/26 12:59:50;;;;;;;21.85;3.10;;;8.40;79.80;;;;;;4101286;28;20027;-90
2022/12/26 13:01:55;;;;;;;21.40;3.05;;;8.40;79.70;;;;;;4067562;29;20138;-89
2022/12/26 13:04:16;;;;;;;19.95;3.28;;;8.40;79.40;;;;;;4103771;28;21093;-88
2022/12/26 13:06:40;;;;;;;17.02;2.55;;;8.30;79.00;;;;;;4072730;29;20504;-89
2022/12/26 13:08:51;;;;;;;17.05;2.72;;;8.30;79.30;;;;;;4085741;28;20056;-88
2022/12/26 13:11:00;;;;;;;17.00;2.42;;;8.30;79.20;;;;;;4086157;28;20031;-87
2022/12/26 13:13:15;;;;;;;16.33;2.00;;;8.20;79.20;;;;;;4081289;28;20039;-88
2022/12/26 13:15:35;;;;;;;10.55;1.95;;;8.20;79.20;;;;;;4097139;28;20038;-87
2022/12/26 13:17:42;;;;;;;12.23;1.52;;;8.20;79.10;;;;;;4081243;28;20568;-88
2022/12/26 13:19:58;;;;;;;15.93;2.15;;;8.10;79.20;;;;;;4068778;29;20075;-88
2022/12/26 13:22:03;;;;;;;12.82;1.40;;;8.00;79.90;;;;;;4094151;28;20515;-88
2022/12/26 13:24:24;;;;;;;14.27;2.00;;;8.00;79.20;;;;;;4135899;28;20028;-87
2022/12/26 13:26:29;;;;;;;18.55;2.17;;;8.00;79.20;;;;;;4136401;28;20084;-87
2022/12/26 13:28:35;;;;;;;19.83;2.88;;;7.90;79.00;;;;;;4146225;28;20018;-88
2022/12/26 13:30:37;;;;;;;17.02;2.38;;;8.00;79.20;;;;;;4127132;28;20108;-88
2022/12/26 13:32:38;;;;;;;17.83;2.87;;;7.90;79.20;;;;;;4124936;28;20037;-89
2022/12/26 13:34:43;;;;;;;20.20;2.42;;;8.00;79.20;;;;;;4143178;28;20037;-88
2022/12/26 13:36:46;;;;;;;21.10;2.38;;;7.80;79.10;;;;;;4129697;28;20434;-88
2022/12/26 13:38:55;;;;;;;8.25;1.70;;;7.80;79.00;;;;;;4141554;28;20026;-89
2022/12/26 13:45:42;;;;;;;15.55;1.40;;;7.50;78.50;;;;;;4160281;28;19923;-88
2022/12/26 13:47:43;;;;;;;12.55;1.80;;;7.40;77.30;;;;;;4116149;28;20164;-88
2022/12/26 13:49:44;;;;;;;12.95;1.60;;;7.20;77.40;;;;;;4139483;28;20030;-88
2022/12/26 13:51:49;;;;;;;13.68;1.55;;;7.20;77.70;;;;;;4129258;28;20053;-89